createdAt,value
2022-08-22T00:03:03.564Z,100077.34
2022-08-22T00:27:51.970Z,100040.31
2022-08-22T00:30:19.319Z,100040.34
2022-08-22T00:32:53.298Z,100044.84
2022-08-22T00:35:26.719Z,100044.16
2022-08-22T00:38:16.385Z,100049.91
2022-08-22T00:57:47.234Z,100048.16
2022-08-22T01:16:56.060Z,100028.63
2022-08-22T01:22:39.136Z,100028.44
2022-08-22T01:25:45.504Z,100019.94
2022-08-22T01:28:53.353Z,100027.09
2022-08-22T01:47:53.723Z,100041.09
2022-08-22T01:50:45.716Z,100039.69
2022-08-22T01:56:12.956Z,100032.84
2022-08-22T01:58:53.786Z,100029.22
2022-08-22T02:04:20.101Z,100027.91
2022-08-22T02:07:31.747Z,100029.97
2022-08-22T02:15:47.499Z,100038.25
2022-08-22T02:18:23.179Z,100027.75
2022-08-22T02:21:06.422Z,100020.94
2022-08-22T02:31:41.147Z,100014.47
2022-08-22T02:34:24.883Z,100011.13
2022-08-22T02:37:07.581Z,100011.16
2022-08-22T02:42:38.026Z,99997.69
2022-08-22T02:48:15.089Z,99992.44
2022-08-22T02:50:59.015Z,100000.41
2022-08-22T02:53:44.494Z,100006.78
2022-08-22T02:56:18.687Z,100003.25
2022-08-22T02:59:10.102Z,99999.88
2022-08-22T03:01:42.005Z,100003.44
2022-08-22T03:07:32.062Z,99988.19
2022-08-22T03:23:13.435Z,99983.09
2022-08-22T03:25:51.350Z,99982.38
2022-08-22T03:28:26.873Z,99969.34
2022-08-22T03:31:12.033Z,99980.16
2022-08-22T03:33:38.678Z,99973.97
2022-08-22T04:14:07.110Z,99983.13
2022-08-22T04:17:14.153Z,99971.09
2022-08-22T04:27:53.271Z,99969.50
2022-08-22T04:35:43.011Z,99981.25
2022-08-22T04:41:04.371Z,99988.72
2022-08-22T04:43:42.463Z,99995.84
2022-08-22T04:51:32.109Z,99990.69
2022-08-22T04:54:16.878Z,99985.47
2022-08-22T04:57:08.345Z,99988.13
2022-08-22T04:59:36.051Z,99991.38
2022-08-22T05:02:08.173Z,99986.97
2022-08-22T05:04:46.506Z,99989.69
2022-08-22T05:07:19.785Z,99982.63
2022-08-22T05:09:53.817Z,99975.69
2022-08-22T05:12:31.097Z,99974.78
2022-08-22T05:15:05.873Z,99967.84
2022-08-22T05:17:38.707Z,99962.66
2022-08-22T05:20:12.412Z,99957.50
2022-08-22T05:22:45.763Z,99958.44
2022-08-22T05:25:18.824Z,99952.38
2022-08-22T05:27:51.262Z,99958.47
2022-08-22T05:30:28.159Z,99955.06
2022-08-22T05:33:32.807Z,99949.16
2022-08-22T05:36:07.108Z,99946.47
2022-08-22T05:38:41.342Z,99940.44
2022-08-22T05:41:12.105Z,99948.31
2022-08-22T05:43:43.381Z,99944.00
2022-08-22T05:46:19.723Z,99944.97
2022-08-22T05:48:57.393Z,99952.72
2022-08-22T05:51:35.746Z,99954.47
2022-08-22T05:54:14.486Z,99946.56
2022-08-22T05:56:47.567Z,99940.31
2022-08-22T05:59:23.859Z,99941.16
2022-08-22T06:02:16.855Z,99942.19
2022-08-22T06:05:03.323Z,99947.34
2022-08-22T06:10:17.688Z,99948.78
2022-08-22T06:12:55.714Z,99949.53
2022-08-22T06:15:33.492Z,99955.47
2022-08-22T06:18:05.504Z,99939.66
2022-08-22T06:20:39.740Z,99936.91
2022-08-22T06:23:08.447Z,99939.38
2022-08-22T06:25:38.969Z,99935.75
2022-08-22T06:28:10.004Z,99940.81
2022-08-22T06:30:39.613Z,99941.50
2022-08-22T06:33:12.856Z,99936.94
2022-08-22T06:36:04.153Z,99935.88
2022-08-22T06:38:34.867Z,99933.94
2022-08-22T06:41:06.936Z,99936.34
2022-08-22T06:43:39.639Z,99937.81
2022-08-22T06:46:07.505Z,99946.09
2022-08-22T06:48:35.716Z,99945.53
2022-08-22T06:51:06.407Z,99939.53
2022-08-22T06:53:48.257Z,99941.81
2022-08-22T06:56:22.850Z,99949.25
2022-08-22T06:58:54.220Z,99954.56
2022-08-22T07:01:26.314Z,99958.03
2022-08-22T07:03:58.548Z,99953.03
2022-08-22T07:06:50.259Z,99953.31
2022-08-22T07:09:24.712Z,99954.69
2022-08-22T07:11:53.455Z,99956.34
2022-08-22T07:14:28.690Z,99952.38
2022-08-22T07:17:00.660Z,99948.63
2022-08-22T07:22:14.928Z,99956.16
2022-08-22T07:24:51.628Z,99963.06
2022-08-22T07:30:27.660Z,99975.97
2022-08-22T07:33:25.952Z,99977.13
2022-08-22T07:35:59.113Z,99976.28
2022-08-22T07:38:42.958Z,99974.25
2022-08-22T07:44:03.349Z,99970.84
2022-08-22T07:46:37.137Z,99966.06
2022-08-22T07:49:22.311Z,99956.09
2022-08-22T07:51:54.558Z,99961.16
2022-08-22T07:54:27.759Z,99965.66
2022-08-22T07:59:33.309Z,99945.06
2022-08-22T08:02:02.113Z,99946.72
2022-08-22T08:04:36.871Z,99934.53
2022-08-22T08:07:08.602Z,99930.28
2022-08-22T08:09:41.163Z,99934.13
2022-08-22T08:12:11.117Z,99923.84
2022-08-22T08:14:42.064Z,99919.06
2022-08-22T08:17:22.022Z,99916.94
2022-08-22T08:19:50.923Z,99924.19
2022-08-22T08:22:25.674Z,99930.28
2022-08-22T08:24:56.174Z,99934.88
2022-08-22T08:27:50.271Z,99942.50
2022-08-22T08:30:22.114Z,99926.75
2022-08-22T08:32:59.517Z,99925.63
2022-08-22T08:36:02.296Z,99933.94
2022-08-22T08:38:39.917Z,99928.88
2022-08-22T08:46:55.124Z,99936.66
2022-08-22T08:52:42.264Z,99931.34
2022-08-22T09:00:30.392Z,99939.50
2022-08-22T09:08:42.263Z,99932.31
2022-08-22T09:11:48.934Z,99931.53
2022-08-22T09:56:15.531Z,99922.56
2022-08-22T10:06:51.515Z,99911.53
2022-08-22T10:09:31.548Z,99908.97
2022-08-22T10:12:24.811Z,99909.69
2022-08-22T10:17:34.122Z,99900.13
2022-08-22T10:20:23.191Z,99891.09
2022-08-22T10:25:42.148Z,99888.69
2022-08-22T10:33:39.945Z,99886.13
2022-08-22T10:36:11.981Z,99887.97
2022-08-22T10:49:29.311Z,99880.56
2022-08-22T10:52:14.776Z,99878.09
2022-08-22T10:54:50.684Z,99872.91
2022-08-22T11:02:39.372Z,99867.53
2022-08-22T11:05:32.549Z,99871.38
2022-08-22T11:13:27.954Z,99878.34
2022-08-22T11:27:01.040Z,99861.56
2022-08-22T11:30:07.468Z,99860.03
2022-08-22T11:33:10.097Z,99856.03
2022-08-22T11:35:53.802Z,99849.41
2022-08-22T11:41:14.505Z,99862.53
2022-08-22T11:43:57.627Z,99848.47
2022-08-22T11:57:11.794Z,99835.38
2022-08-22T12:02:21.501Z,99821.94
2022-08-22T12:04:55.573Z,99826.19
2022-08-22T12:10:13.789Z,99816.94
2022-08-22T12:15:39.570Z,99811.88
2022-08-22T12:32:15.084Z,99810.63
2022-08-22T12:37:29.952Z,99820.31
2022-08-22T12:46:13.200Z,99816.69
2022-08-22T12:48:53.375Z,99818.31
2022-08-22T12:54:27.977Z,99821.50
2022-08-22T12:57:28.341Z,99826.22
2022-08-22T13:00:09.778Z,99818.22
2022-08-22T13:02:39.801Z,99818.09
2022-08-22T13:05:19.879Z,99814.00
2022-08-22T13:07:54.555Z,99820.31
2022-08-22T13:10:51.244Z,99820.41
2022-08-22T13:24:16.847Z,99810.88
2022-08-22T13:26:56.373Z,99811.88
2022-08-22T13:29:39.594Z,99809.56
2022-08-22T13:32:20.809Z,99804.44
2022-08-22T13:34:55.682Z,99802.00
2022-08-22T13:37:28.976Z,99803.84
2022-08-22T13:40:01.856Z,99802.06
2022-08-22T13:42:32.306Z,99796.72
2022-08-22T13:45:04.985Z,99801.69
2022-08-22T13:47:35.897Z,99794.78
2022-08-22T13:50:14.842Z,99798.34
2022-08-22T13:52:52.289Z,99774.69
2022-08-22T13:58:04.708Z,99774.59
2022-08-22T14:03:26.152Z,99771.56
2022-08-22T14:06:07.172Z,99766.16
2022-08-22T14:08:46.558Z,99775.13
2022-08-22T14:11:29.079Z,99768.25
2022-08-22T14:14:00.103Z,99765.25
2022-08-22T14:19:13.533Z,99761.81
2022-08-22T14:29:53.390Z,99761.03
2022-08-22T14:35:02.905Z,99754.00
2022-08-22T14:37:35.200Z,99757.78
2022-08-22T14:40:13.400Z,99752.97
2022-08-22T14:45:46.428Z,99745.34
2022-08-22T14:48:31.708Z,99752.13
2022-08-22T14:51:04.328Z,99751.41
2022-08-22T14:53:34.157Z,99742.34
2022-08-22T14:58:49.510Z,99754.19
2022-08-22T15:01:21.679Z,99751.41
2022-08-22T15:03:55.851Z,99754.28
2022-08-22T15:06:35.361Z,99751.38
2022-08-22T15:09:07.938Z,99753.41
2022-08-22T15:11:36.961Z,99757.63
2022-08-22T15:16:46.399Z,99761.69
2022-08-22T15:22:38.999Z,99762.31
2022-08-22T15:27:47.944Z,99772.53
2022-08-22T15:30:20.597Z,99776.41
2022-08-22T15:32:49.126Z,99773.53
2022-08-22T15:35:29.916Z,99766.41
2022-08-22T15:38:04.372Z,99760.63
2022-08-22T15:45:50.810Z,99751.00
2022-08-22T15:48:38.974Z,99748.31
2022-08-22T15:51:10.530Z,99744.69
2022-08-22T15:56:27.426Z,99748.31
2022-08-22T16:28:36.063Z,99725.50
2022-08-22T16:31:32.031Z,99727.53
2022-08-22T17:00:38.709Z,99713.34
2022-08-22T17:08:57.940Z,99708.81
2022-08-22T17:22:58.242Z,99708.59
2022-08-22T17:42:02.978Z,99715.09
2022-08-22T17:55:05.574Z,99724.06
2022-08-22T17:57:44.319Z,99726.38
2022-08-22T18:00:30.729Z,99721.78
2022-08-22T18:08:37.861Z,99724.03
2022-08-22T18:11:13.440Z,99735.28
2022-08-22T18:13:56.446Z,99727.09
2022-08-22T18:16:46.370Z,99727.69
2022-08-22T18:27:40.311Z,99725.06
2022-08-22T18:53:54.255Z,99736.38
2022-08-22T18:56:58.368Z,99728.66
2022-08-22T19:05:16.560Z,99744.53
2022-08-22T19:08:22.930Z,99744.69
2022-08-22T19:16:43.258Z,99750.50
2022-08-22T19:19:17.848Z,99750.31
2022-08-22T19:22:24.613Z,99760.66
2022-08-22T19:25:15.418Z,99750.66
2022-08-22T19:27:45.539Z,99745.19
2022-08-22T19:41:06.847Z,99758.19
2022-08-22T19:43:37.937Z,99768.34
2022-08-22T19:46:08.773Z,99763.44
2022-08-22T19:48:47.923Z,99755.22
2022-08-22T20:04:48.835Z,99762.66
2022-08-22T20:15:32.869Z,99760.59
2022-08-22T20:21:02.464Z,99759.69
2022-08-22T20:23:30.818Z,99756.13
2022-08-22T20:25:58.695Z,99754.84
2022-08-22T20:31:10.886Z,99750.69
2022-08-22T20:33:42.887Z,99748.22
2022-08-22T20:36:28.854Z,99749.63
2022-08-22T20:39:09.220Z,99742.84
2022-08-22T20:41:49.905Z,99734.16
2022-08-22T20:47:04.476Z,99731.63
2022-08-22T20:49:37.750Z,99734.25
2022-08-22T20:52:08.238Z,99741.31
2022-08-22T20:54:38.161Z,99744.03
2022-08-22T20:59:53.825Z,99749.38
2022-08-22T21:05:00.600Z,99753.88
2022-08-22T21:10:43.776Z,99745.50
2022-08-22T21:16:14.362Z,99755.72
2022-08-22T21:18:45.946Z,99757.28
2022-08-22T21:23:51.399Z,99752.91
2022-08-22T21:31:44.642Z,99756.03
2022-08-22T21:34:16.148Z,99750.75
2022-08-22T21:36:43.532Z,99757.84
2022-08-22T21:39:19.561Z,99746.50
2022-08-22T21:41:52.858Z,99747.38
2022-08-22T21:44:38.724Z,99749.56
2022-08-22T21:50:25.601Z,99745.56
2022-08-22T21:55:34.404Z,99751.59
2022-08-22T22:03:36.888Z,99742.56
2022-08-22T22:06:06.254Z,99749.63
2022-08-22T22:08:33.759Z,99748.84
2022-08-22T22:11:06.049Z,99750.56
2022-08-22T22:13:34.984Z,99754.13
2022-08-22T22:16:01.657Z,99759.38
2022-08-22T22:18:32.903Z,99760.16
2022-08-22T22:21:00.001Z,99762.78
2022-08-22T22:23:27.304Z,99768.03
2022-08-22T22:25:56.556Z,99762.78
2022-08-22T22:28:29.220Z,99761.16
2022-08-22T22:30:56.128Z,99760.50
2022-08-22T22:33:26.051Z,99768.38
2022-08-22T22:35:55.548Z,99763.13
2022-08-22T22:38:24.210Z,99765.75
2022-08-22T22:40:51.447Z,99755.53
2022-08-22T22:43:18.137Z,99762.56
2022-08-22T22:45:44.970Z,99769.56
2022-08-22T22:48:11.525Z,99767.00
2022-08-22T22:50:44.266Z,99765.28
2022-08-22T22:53:11.789Z,99764.59
2022-08-22T22:56:00.201Z,99773.59
2022-08-22T22:58:28.227Z,99771.19
2022-08-22T23:00:56.088Z,99774.91
2022-08-22T23:03:22.931Z,99770.66
2022-08-22T23:05:49.510Z,99773.44
2022-08-22T23:08:16.120Z,99778.78
2022-08-22T23:10:42.740Z,99767.56
2022-08-22T23:13:09.409Z,99769.34
2022-08-22T23:15:37.062Z,99765.94
2022-08-22T23:18:03.745Z,99763.44
2022-08-22T23:20:30.364Z,99766.28
2022-08-22T23:22:56.993Z,99775.25
2022-08-22T23:25:23.572Z,99775.41
2022-08-22T23:27:52.516Z,99777.34
2022-08-22T23:30:20.117Z,99774.00
2022-08-22T23:32:46.783Z,99776.81
2022-08-22T23:35:13.596Z,99769.91
2022-08-22T23:37:40.219Z,99764.81
2022-08-22T23:40:08.668Z,99765.72
2022-08-22T23:42:35.283Z,99761.38
2022-08-22T23:45:01.894Z,99763.25
2022-08-22T23:47:28.485Z,99759.97
2022-08-22T23:49:55.068Z,99755.72
2022-08-22T23:52:21.757Z,99765.56
2022-08-22T23:54:48.356Z,99760.44
2022-08-22T23:57:21.084Z,99772.81
2022-08-22T23:59:57.675Z,99774.66
